Time;durP1;ratioP1;P1;durP2;ratioP2;P2;SDS_P1;SDS_P2;PMS_P1;PMS_P2;Temp;Humidity;BMP_temperature;BMP_pressure;BME280_temperature;BME280_humidity;BME280_pressure;Samples;Min_cycle;Max_cycle;Signal;HPM_P1;HPM_P2
2022/04/13 00:00:49;;;;;;;12.47;4.10;;;;;;;0.33;74.58;101623.16;2088879;28;20291;-60
2022/04/13 00:01:56;;;;;;;16.53;4.73;;;;;;;0.34;74.59;101624.78;2096598;28;20282;-59
2022/04/13 00:02:58;;;;;;;18.83;4.70;;;;;;;0.34;74.21;101618.63;2096477;28;20301;-59
2022/04/13 00:04:02;;;;;;;18.67;5.03;;;;;;;0.36;74.89;101625.38;2096057;28;20793;-59
2022/04/13 00:05:09;;;;;;;22.33;4.80;;;;;;;0.38;74.45;101623.34;2095575;28;20278;-60
2022/04/13 00:06:15;;;;;;;15.73;3.90;;;;;;;0.38;74.68;101619.84;2096713;28;20595;-61
2022/04/13 00:07:17;;;;;;;15.43;3.83;;;;;;;0.36;74.38;101625.38;2098808;28;20298;-59
2022/04/13 00:08:20;;;;;;;23.50;4.80;;;;;;;0.36;74.57;101624.56;2088997;28;20655;-59
2022/04/13 00:09:29;;;;;;;20.45;3.97;;;;;;;0.35;74.36;101621.09;2082289;28;20291;-59
2022/04/13 00:10:34;;;;;;;17.80;3.03;;;;;;;0.34;74.75;101619.44;2097200;28;20053;-58
2022/04/13 00:11:39;;;;;;;21.20;3.93;;;;;;;0.36;74.63;101621.91;2111932;28;20273;-59
2022/04/13 00:12:42;;;;;;;16.50;3.70;;;;;;;0.36;74.25;101620.06;2105025;28;20293;-59
2022/04/13 00:13:47;;;;;;;17.47;4.00;;;;;;;0.36;74.31;101617.41;2097186;28;20293;-59
2022/04/13 00:14:50;;;;;;;10.80;3.63;;;;;;;0.36;74.02;101614.72;2091231;28;20307;-59
2022/04/13 00:15:52;;;;;;;18.60;4.70;;;;;;;0.32;74.33;101616.19;2089729;28;20284;-58
2022/04/13 00:16:55;;;;;;;20.93;4.20;;;;;;;0.33;74.22;101617.81;2090140;28;20358;-59
2022/04/13 00:18:04;;;;;;;20.23;3.93;;;;;;;0.29;74.41;101621.94;2098327;28;20648;-59
2022/04/13 00:19:07;;;;;;;22.30;4.60;;;;;;;0.23;74.80;101616.63;2106588;28;20262;-59
2022/04/13 00:20:11;;;;;;;16.77;4.43;;;;;;;0.19;74.68;101608.22;2114405;28;20059;-60
2022/04/13 00:21:13;;;;;;;10.87;3.70;;;;;;;0.18;74.63;101607.41;2106368;28;20313;-59
2022/04/13 00:22:20;;;;;;;17.30;4.63;;;;;;;0.18;74.69;101606.59;2090554;28;20306;-60
2022/04/13 00:23:26;;;;;;;22.67;4.90;;;;;;;0.13;74.84;101607.25;2091655;28;20294;-62
2022/04/13 00:24:32;;;;;;;21.33;5.30;;;;;;;0.11;75.16;101603.16;2107501;28;20290;-62
2022/04/13 00:25:38;;;;;;;20.33;5.17;;;;;;;0.08;75.00;101614.22;2113779;28;20289;-59
2022/04/13 00:26:45;;;;;;;14.57;5.07;;;;;;;0.04;75.14;101611.16;2114769;28;20332;-60
2022/04/13 00:27:47;;;;;;;23.43;5.13;;;;;;;0.05;75.33;101610.13;2106194;28;20294;-59
2022/04/13 00:28:52;;;;;;;24.30;5.60;;;;;;;0.03;75.10;101606.03;2089915;28;20714;-59
2022/04/13 00:29:54;;;;;;;19.27;5.80;;;;;;;-0.00;75.21;101601.13;2074437;28;20301;-60
2022/04/13 00:30:58;;;;;;;26.23;5.33;;;;;;;-0.02;75.09;101597.88;2090182;28;20291;-60
2022/04/13 00:32:03;;;;;;;26.13;6.50;;;;;;;-0.04;75.48;101600.75;2106522;28;20297;-59
2022/04/13 00:33:10;;;;;;;20.03;5.67;;;;;;;-0.05;75.17;101599.13;2106934;28;20287;-59
2022/04/13 00:34:15;;;;;;;;;;;;;;;-0.09;75.25;101598.72;2089484;28;20287;-60
2022/04/13 00:35:22;;;;;;;17.93;6.33;;;;;;;-0.09;75.45;101592.59;2088426;28;20338;-59
2022/04/13 00:36:27;;;;;;;21.90;4.80;;;;;;;-0.09;75.70;101598.72;2089669;28;20294;-60
2022/04/13 00:37:30;;;;;;;20.10;5.73;;;;;;;-0.10;75.66;101591.75;2089611;28;20291;-59
2022/04/13 00:38:35;;;;;;;16.00;4.80;;;;;;;-0.11;75.77;101599.94;2097304;28;20279;-59
2022/04/13 00:39:38;;;;;;;18.47;4.73;;;;;;;-0.08;75.57;101594.22;2090203;28;20298;-59
2022/04/13 00:40:43;;;;;;;12.17;4.73;;;;;;;-0.11;76.08;101595.44;2081127;28;20292;-59
2022/04/13 00:41:47;;;;;;;15.23;4.80;;;;;;;-0.09;76.29;101593.41;2082293;28;20288;-58
2022/04/13 00:42:52;;;;;;;14.37;4.20;;;;;;;-0.09;76.19;101590.72;2073138;28;20343;-59
2022/04/13 00:44:03;;;;;;;14.77;4.13;;;;;;;-0.09;76.34;101590.72;2081575;28;20678;-59
2022/04/13 00:45:07;;;;;;;17.70;4.10;;;;;;;-0.11;76.45;101590.13;2097640;28;20647;-59
2022/04/13 00:46:10;;;;;;;15.77;4.30;;;;;;;-0.12;76.50;101580.50;2096829;28;20746;-59
2022/04/13 00:47:14;;;;;;;11.93;3.60;;;;;;;-0.12;76.70;101579.69;2089714;28;20296;-57
2022/04/13 00:48:34;;;;;;;16.13;4.40;;;;;;;-0.19;77.06;101582.34;2098728;28;20298;-58
2022/04/13 00:49:39;;;;;;;;;;;;;;;-0.21;77.15;101571.13;2106247;28;20283;-58
2022/04/13 00:50:41;;;;;;;15.37;3.80;;;;;;;-0.26;77.47;101581.56;2105658;28;19950;-59
2022/04/13 00:51:44;;;;;;;15.40;3.73;;;;;;;-0.27;77.65;101585.25;2097357;28;20382;-60
2022/04/13 00:52:47;;;;;;;10.20;3.50;;;;;;;-0.23;77.05;101582.97;2106010;28;20286;-59
2022/04/13 00:54:05;;;;;;;9.70;3.17;;;;;;;-0.26;77.75;101584.22;2105823;28;20282;-58
2022/04/13 00:55:13;;;;;;;14.03;3.57;;;;;;;-0.22;77.92;101587.28;2099974;28;20294;-59
2022/04/13 00:56:23;;;;;;;11.67;3.13;;;;;;;-0.20;77.81;101583.38;2105944;28;20295;-60
2022/04/13 00:57:28;;;;;;;;;;;;;;;-0.16;77.74;101586.44;2089528;28;20797;-59
2022/04/13 00:58:33;;;;;;;10.80;2.97;;;;;;;-0.13;78.04;101589.50;2089521;28;19913;-60
2022/04/13 00:59:42;;;;;;;17.63;3.42;;;;;;;-0.12;77.74;101587.69;2089319;28;20750;-59
2022/04/13 01:00:49;;;;;;;11.50;3.10;;;;;;;-0.13;77.97;101586.03;2090154;28;20055;-60
2022/04/13 01:01:57;;;;;;;9.33;2.67;;;;;;;-0.12;78.04;101588.50;2089299;28;20302;-59
2022/04/13 01:03:04;;;;;;;12.00;3.00;;;;;;;-0.09;78.08;101593.41;2090149;28;20294;-59
2022/04/13 01:04:11;;;;;;;10.67;3.00;;;;;;;-0.10;78.18;101591.75;2091184;28;20295;-59
2022/04/13 01:05:15;;;;;;;7.70;2.40;;;;;;;-0.09;78.09;101589.91;2097908;28;20686;-59
2022/04/13 01:06:19;;;;;;;7.07;2.67;;;;;;;-0.08;78.46;101587.03;2098291;28;20287;-59
2022/04/13 01:07:21;;;;;;;12.30;3.07;;;;;;;-0.03;78.12;101597.03;2097707;28;20283;-58
2022/04/13 01:08:32;;;;;;;6.03;3.15;;;;;;;-0.03;78.04;101590.91;2097729;28;20291;-58
2022/04/13 01:09:37;;;;;;;9.57;2.70;;;;;;;-0.03;78.15;101599.69;2097562;28;20048;-58
2022/04/13 01:10:45;;;;;;;11.27;2.40;;;;;;;-0.01;78.07;101602.16;2098430;28;20271;-59
2022/04/13 01:11:47;;;;;;;8.93;2.80;;;;;;;-0.00;78.12;101595.81;2089326;28;20279;-59
2022/04/13 01:12:50;;;;;;;10.37;2.57;;;;;;;0.03;78.08;101600.72;2081827;28;20295;-59
2022/04/13 01:13:57;;;;;;;9.17;2.40;;;;;;;0.06;78.14;101603.78;2089070;28;20654;-59
2022/04/13 01:14:59;;;;;;;10.83;3.37;;;;;;;0.09;78.26;101605.19;2096929;28;20279;-58
2022/04/13 01:16:07;;;;;;;6.67;2.30;;;;;;;0.09;78.16;101598.03;2097065;28;20279;-58
2022/04/13 01:17:17;;;;;;;6.57;2.37;;;;;;;0.11;78.00;101603.16;2097644;28;20282;-59
2022/04/13 01:18:20;;;;;;;5.20;2.47;;;;;;;0.11;77.85;101603.16;2097398;28;20764;-58
2022/04/13 01:19:31;;;;;;;7.43;2.23;;;;;;;0.13;77.92;101609.06;2089862;28;20291;-59
2022/04/13 01:20:39;;;;;;;6.20;2.38;;;;;;;0.14;77.92;101600.09;2082815;28;20283;-59
2022/04/13 01:21:52;;;;;;;6.97;2.50;;;;;;;0.16;77.99;101606.84;2074484;28;20045;-59
2022/04/13 01:22:56;;;;;;;5.43;2.30;;;;;;;0.19;77.82;101605.56;2091035;28;20294;-59
2022/04/13 01:24:01;;;;;;;8.47;2.73;;;;;;;0.19;77.89;101610.91;2097886;28;20290;-59
2022/04/13 01:25:07;;;;;;;7.40;2.67;;;;;;;0.19;78.19;101605.56;2097884;28;20286;-59
2022/04/13 01:26:10;;;;;;;6.47;2.07;;;;;;;0.21;77.90;101608.84;2098110;28;20290;-59
2022/04/13 01:27:14;;;;;;;10.83;2.40;;;;;;;0.23;78.46;101604.16;2098374;28;20286;-59
2022/04/13 01:28:25;;;;;;;6.70;2.10;;;;;;;0.26;78.32;101600.25;2096151;28;20294;-59
2022/04/13 01:29:29;;;;;;;6.93;2.00;;;;;;;0.28;78.14;101609.63;2082057;28;20312;-59
2022/04/13 01:30:33;;;;;;;9.77;2.50;;;;;;;0.27;78.31;101602.69;2088511;28;20294;-59
2022/04/13 01:31:36;;;;;;;9.40;2.93;;;;;;;0.28;78.11;101609.63;2097452;28;20297;-59
2022/04/13 01:32:41;;;;;;;10.80;2.63;;;;;;;0.26;77.76;101611.72;2073032;28;20285;-59
2022/04/13 01:33:44;;;;;;;5.00;2.27;;;;;;;0.26;77.89;101610.91;2075650;28;20288;-59
2022/04/13 01:34:48;;;;;;;6.83;2.60;;;;;;;0.26;77.99;101611.72;2074024;28;20768;-59
2022/04/13 01:35:51;;;;;;;7.60;2.90;;;;;;;0.26;77.82;101605.56;2082117;28;20771;-59
2022/04/13 01:36:56;;;;;;;8.43;2.77;;;;;;;0.25;77.77;101604.72;2088521;28;20275;-59
2022/04/13 01:37:59;;;;;;;6.67;2.70;;;;;;;0.25;77.76;101607.41;2081366;28;20636;-58
2022/04/13 01:39:05;;;;;;;8.37;3.00;;;;;;;0.24;77.06;101616.41;2081124;28;20289;-58
2022/04/13 01:40:10;;;;;;;6.13;2.57;;;;;;;0.23;77.74;101613.97;2080945;28;20296;-59
2022/04/13 01:41:13;;;;;;;11.67;3.20;;;;;;;0.23;77.69;101612.13;2087923;28;20291;-58
2022/04/13 01:42:20;;;;;;;10.27;2.97;;;;;;;0.19;77.22;101618.88;2089661;28;20284;-58
2022/04/13 01:43:24;;;;;;;8.53;3.33;;;;;;;0.17;77.22;101613.78;2095620;28;20287;-59
2022/04/13 01:44:29;;;;;;;8.00;2.80;;;;;;;0.17;77.28;101620.97;2089657;28;20314;-58
2022/04/13 01:45:31;;;;;;;7.70;2.60;;;;;;;0.17;77.42;101605.78;2088970;28;20296;-59
2022/04/13 01:46:33;;;;;;;9.03;2.90;;;;;;;0.18;77.49;101614.59;2080585;28;20296;-59
2022/04/13 01:47:36;;;;;;;6.80;2.83;;;;;;;0.16;77.38;101608.66;2080574;28;20303;-59
2022/04/13 01:48:39;;;;;;;6.13;2.50;;;;;;;0.16;77.52;101600.66;2084509;28;20290;-58
2022/04/13 01:49:42;;;;;;;9.20;2.80;;;;;;;0.15;77.18;101605.19;2096809;28;20318;-59
2022/04/13 01:50:45;;;;;;;8.67;3.03;;;;;;;0.17;77.50;101602.31;2098273;28;20282;-59
2022/04/13 01:51:47;;;;;;;6.43;2.93;;;;;;;0.17;77.16;101602.31;2088945;28;20294;-59
2022/04/13 01:52:50;;;;;;;13.90;3.43;;;;;;;0.15;77.12;101609.69;2080970;28;20295;-59
2022/04/13 01:53:55;;;;;;;7.10;3.00;;;;;;;0.14;77.46;101613.38;2095905;28;20317;-59
2022/04/13 01:54:57;;;;;;;7.93;2.70;;;;;;;0.14;77.31;101613.38;2097245;28;20666;-59
2022/04/13 01:56:01;;;;;;;5.67;2.70;;;;;;;0.16;77.42;101613.97;2096684;28;20302;-59
2022/04/13 01:57:04;;;;;;;7.80;3.00;;;;;;;0.17;77.17;101610.31;2097097;28;20298;-59
2022/04/13 01:58:08;;;;;;;7.50;2.37;;;;;;;0.14;77.80;101613.38;2096681;28;20291;-61
2022/04/13 01:59:10;;;;;;;5.87;2.57;;;;;;;0.13;77.76;101614.38;2096311;28;20305;-59
2022/04/13 02:00:15;;;;;;;6.03;2.30;;;;;;;0.12;77.86;101615.44;2088737;28;20321;-59
2022/04/13 02:01:19;;;;;;;7.70;2.50;;;;;;;0.11;77.76;101619.94;2081625;28;20659;-60
2022/04/13 02:02:21;;;;;;;6.33;2.63;;;;;;;0.09;78.07;101624.66;2089199;28;20288;-59
2022/04/13 02:03:25;;;;;;;6.73;2.47;;;;;;;0.07;78.14;101620.59;2080871;28;20304;-59
2022/04/13 02:04:31;;;;;;;9.33;2.60;;;;;;;0.07;78.20;101615.25;2088707;28;20284;-59
2022/04/13 02:05:38;;;;;;;7.50;3.13;;;;;;;0.04;78.05;101618.34;2097814;28;20297;-59
2022/04/13 02:06:42;;;;;;;8.53;2.80;;;;;;;0.03;78.21;101616.69;2088688;28;20295;-59
2022/04/13 02:07:44;;;;;;;8.80;2.70;;;;;;;-0.02;78.54;101617.31;2080264;28;20307;-59
2022/04/13 02:08:48;;;;;;;9.47;2.73;;;;;;;-0.05;78.89;101615.88;2088966;28;20283;-59
2022/04/13 02:09:55;;;;;;;13.67;3.53;;;;;;;-0.07;79.06;101617.94;2098036;28;20299;-59
2022/04/13 02:11:00;;;;;;;12.10;2.97;;;;;;;-0.06;79.35;101619.59;2096184;28;20279;-59
2022/04/13 02:12:06;;;;;;;7.27;2.70;;;;;;;-0.08;79.27;101610.97;2088561;28;20283;-58
2022/04/13 02:13:09;;;;;;;12.07;2.77;;;;;;;-0.08;79.38;101621.63;2081403;28;20292;-59
2022/04/13 02:14:13;;;;;;;11.73;3.40;;;;;;;-0.06;79.15;101619.59;2089882;28;20782;-58
2022/04/13 02:15:16;;;;;;;13.93;3.77;;;;;;;-0.05;79.48;101615.88;2096139;28;20298;-59
2022/04/13 02:16:21;;;;;;;12.97;4.40;;;;;;;-0.05;79.44;101618.56;2089265;28;20302;-59
2022/04/13 02:17:22;;;;;;;15.33;4.23;;;;;;;-0.05;79.31;101617.75;2097026;28;20297;-58
2022/04/13 02:18:25;;;;;;;13.30;3.87;;;;;;;-0.03;78.91;101625.50;2096629;28;20294;-59
2022/04/13 02:19:27;;;;;;;14.93;3.60;;;;;;;-0.02;78.98;101616.50;2096732;28;20689;-59
2022/04/13 02:20:30;;;;;;;11.47;4.50;;;;;;;-0.03;78.80;101622.84;2072935;28;20289;-59
2022/04/13 02:21:34;;;;;;;16.57;5.17;;;;;;;-0.06;78.62;101624.91;2080895;28;20303;-59
2022/04/13 02:22:37;;;;;;;19.33;4.07;;;;;;;-0.08;78.85;101626.94;2096450;28;20766;-59
2022/04/13 02:23:39;;;;;;;9.27;3.57;;;;;;;-0.04;78.78;101627.34;2097255;28;20729;-59
2022/04/13 02:24:45;;;;;;;15.53;4.63;;;;;;;-0.02;78.48;101627.97;2104795;28;20278;-59
2022/04/13 02:25:48;;;;;;;15.23;3.70;;;;;;;0.02;78.09;101628.38;2097291;28;20282;-59
2022/04/13 02:26:53;;;;;;;10.90;4.50;;;;;;;0.04;77.99;101631.66;2096947;28;20294;-59
2022/04/13 02:27:55;;;;;;;14.80;3.70;;;;;;;0.06;78.15;101622.41;2097158;28;20655;-59
2022/04/13 02:28:58;;;;;;;12.13;3.60;;;;;;;0.05;77.47;101626.09;2088207;28;20782;-59
2022/04/13 02:30:03;;;;;;;12.97;4.27;;;;;;;0.04;77.38;101629.78;2089096;28;20303;-59
2022/04/13 02:31:09;;;;;;;13.93;5.03;;;;;;;0.04;77.60;101621.81;2089490;28;20292;-58
2022/04/13 02:32:14;;;;;;;11.00;3.90;;;;;;;0.05;77.34;101626.09;2096835;28;20286;-59
2022/04/13 02:33:21;;;;;;;11.23;3.83;;;;;;;0.06;77.10;101626.91;2080257;28;20291;-59
2022/04/13 02:34:22;;;;;;;16.53;4.07;;;;;;;0.08;77.06;101622.22;2073876;28;21192;-60
2022/04/13 02:35:25;;;;;;;12.97;3.77;;;;;;;0.08;77.11;101633.66;2079458;28;20295;-58
2022/04/13 02:36:34;;;;;;;8.70;3.93;;;;;;;0.08;76.75;101630.19;2088071;28;20338;-58
2022/04/13 02:37:42;;;;;;;15.53;4.33;;;;;;;0.04;76.69;101632.47;2096514;28;20294;-59
2022/04/13 02:38:44;;;;;;;15.23;4.60;;;;;;;0.02;76.67;101620.38;2095717;28;20296;-59
2022/04/13 02:39:51;;;;;;;11.17;4.30;;;;;;;0.00;76.54;101633.88;2088741;28;20295;-59
2022/04/13 02:40:56;;;;;;;15.47;4.07;;;;;;;-0.02;76.31;101630.63;2097019;28;20298;-59
2022/04/13 02:42:02;;;;;;;11.33;4.50;;;;;;;-0.03;76.19;101631.63;2095143;28;20286;-58
2022/04/13 02:43:11;;;;;;;18.13;5.07;;;;;;;-0.07;76.36;101633.91;2089238;28;20276;-58
2022/04/13 02:44:15;;;;;;;14.10;4.50;;;;;;;-0.15;76.56;101631.47;2089082;28;20288;-58
2022/04/13 02:45:20;;;;;;;14.00;5.00;;;;;;;-0.14;76.46;101634.94;2088833;28;20291;-59
2022/04/13 02:46:22;;;;;;;14.53;4.80;;;;;;;-0.14;76.47;101633.09;2087995;28;20805;-58
2022/04/13 02:47:25;;;;;;;13.40;5.13;;;;;;;-0.17;75.91;101636.16;2080382;28;20292;-58
2022/04/13 02:48:27;;;;;;;11.80;4.67;;;;;;;-0.17;75.96;101632.69;2082664;28;20815;-58
2022/04/13 02:49:30;;;;;;;16.17;5.17;;;;;;;-0.22;76.18;101641.28;2079779;28;20291;-58
2022/04/13 02:50:38;;;;;;;14.23;4.70;;;;;;;-0.21;76.06;101637.63;2088066;28;20292;-59
2022/04/13 02:51:45;;;;;;;13.17;4.63;;;;;;;-0.19;76.25;101640.88;2089276;28;20287;-58
2022/04/13 02:52:49;;;;;;;12.97;4.60;;;;;;;-0.15;76.01;101636.78;2089421;28;20291;-58
2022/04/13 02:53:54;;;;;;;15.40;4.47;;;;;;;-0.14;75.89;101638.41;2088653;28;20284;-59
2022/04/13 02:55:02;;;;;;;13.00;5.03;;;;;;;-0.14;75.80;101633.09;2088050;28;20296;-59
2022/04/13 02:56:08;;;;;;;13.63;5.32;;;;;;;-0.14;75.39;101629.63;2081372;28;20285;-58
2022/04/13 02:57:11;;;;;;;14.23;4.97;;;;;;;-0.12;75.43;101636.38;2087260;28;20079;-59
2022/04/13 02:58:17;;;;;;;12.37;4.50;;;;;;;-0.15;75.33;101642.13;2096896;28;20286;-60
2022/04/13 02:59:21;;;;;;;16.30;4.57;;;;;;;-0.14;75.16;101633.09;2097479;28;20622;-59
2022/04/13 03:00:24;;;;;;;15.37;5.10;;;;;;;-0.16;74.94;101632.47;2088199;28;20746;-59
2022/04/13 03:01:28;;;;;;;21.10;5.63;;;;;;;-0.19;74.86;101635.56;2088592;28;20290;-59
2022/04/13 03:02:31;;;;;;;14.97;5.70;;;;;;;-0.22;75.08;101633.31;2096151;28;20287;-59
2022/04/13 03:03:34;;;;;;;16.13;5.80;;;;;;;-0.28;74.95;101626.19;2088290;28;20287;-60
2022/04/13 03:04:39;;;;;;;19.13;6.50;;;;;;;-0.29;75.38;101635.16;2096082;28;20286;-63
2022/04/13 03:05:46;;;;;;;16.80;5.27;;;;;;;-0.25;75.48;101630.25;2096986;28;20317;-60
2022/04/13 03:06:51;;;;;;;16.53;6.00;;;;;;;-0.21;75.41;101626.16;2088327;28;20310;-60
2022/04/13 03:07:52;;;;;;;15.40;5.83;;;;;;;-0.23;75.15;101638.84;2095833;28;20282;-59
2022/04/13 03:08:55;;;;;;;18.67;5.83;;;;;;;-0.22;75.19;101627.97;2113057;28;20308;-62
2022/04/13 03:09:57;;;;;;;10.30;4.73;;;;;;;-0.20;75.05;101636.59;2105080;28;20371;-58
2022/04/13 03:11:04;;;;;;;14.47;4.47;;;;;;;-0.18;74.84;101631.88;2096292;28;20287;-59
2022/04/13 03:12:08;;;;;;;16.30;4.93;;;;;;;-0.17;74.65;101628.19;2097733;28;20291;-59
2022/04/13 03:13:13;;;;;;;18.83;5.40;;;;;;;-0.14;74.59;101626.97;2105152;28;20290;-59
2022/04/13 03:14:15;;;;;;;18.47;5.13;;;;;;;-0.12;74.20;101631.06;2105912;28;20282;-58
2022/04/13 03:15:22;;;;;;;15.33;5.03;;;;;;;-0.13;74.07;101632.06;2104847;28;20788;-59
2022/04/13 03:16:24;;;;;;;15.77;4.50;;;;;;;-0.09;73.98;101633.31;2097520;28;20286;-58
2022/04/13 03:17:28;;;;;;;17.60;4.80;;;;;;;-0.07;73.72;101625.09;2105007;28;20629;-59
2022/04/13 03:18:35;;;;;;;11.57;4.87;;;;;;;-0.08;73.40;101624.28;2105302;28;20286;-60
2022/04/13 03:19:38;;;;;;;21.20;4.90;;;;;;;-0.08;73.62;101620.81;2105821;28;20274;-59
2022/04/13 03:20:43;;;;;;;17.73;4.53;;;;;;;-0.09;73.11;101620.00;2105358;28;20282;-60
2022/04/13 03:21:51;;;;;;;12.20;4.87;;;;;;;-0.08;73.54;101628.78;2104666;28;20282;-60
2022/04/13 03:22:54;;;;;;;12.73;4.03;;;;;;;-0.08;72.84;101626.13;2087942;28;20762;-60
2022/04/13 03:23:56;;;;;;;15.03;4.30;;;;;;;-0.09;72.87;101627.97;2088161;28;20056;-60
2022/04/13 03:25:00;;;;;;;17.33;4.17;;;;;;;-0.13;72.76;101628.59;2088035;28;20291;-60
2022/04/13 03:26:03;;;;;;;13.50;5.47;;;;;;;-0.15;73.08;101622.69;2095377;28;20782;-59
2022/04/13 03:27:06;;;;;;;20.13;4.57;;;;;;;-0.17;73.20;101617.56;2089110;28;20284;-59
2022/04/13 03:28:09;;;;;;;23.43;5.10;;;;;;;-0.19;72.93;101624.91;2079984;28;20379;-59
2022/04/13 03:29:15;;;;;;;14.77;4.90;;;;;;;-0.18;73.14;101621.25;2080255;28;20315;-60
2022/04/13 03:30:26;;;;;;;18.93;4.97;;;;;;;-0.20;73.22;101623.28;2089103;28;20295;-59
2022/04/13 03:31:31;;;;;;;16.30;3.80;;;;;;;-0.26;72.85;101618.78;2087984;28;20287;-59
2022/04/13 03:32:38;;;;;;;12.83;4.00;;;;;;;-0.24;72.55;101621.25;2088340;28;20298;-59
2022/04/13 03:33:42;;;;;;;14.70;4.10;;;;;;;-0.26;72.59;101618.78;2089146;28;20279;-60
2022/04/13 03:34:46;;;;;;;14.57;4.20;;;;;;;-0.31;72.26;101618.59;2080012;28;20707;-58
2022/04/13 03:35:50;;;;;;;18.40;5.07;;;;;;;-0.30;72.67;101623.72;2080433;28;20276;-59
2022/04/13 03:36:55;;;;;;;11.70;4.90;;;;;;;-0.32;72.62;101624.94;2082753;28;21565;-59
2022/04/13 03:37:57;;;;;;;21.40;4.60;;;;;;;-0.34;72.40;101629.66;2088005;28;20303;-59
2022/04/13 03:39:00;;;;;;;17.83;4.73;;;;;;;-0.32;72.57;101630.25;2088572;28;20288;-59
2022/04/13 03:40:03;;;;;;;15.27;4.77;;;;;;;-0.30;72.72;101631.69;2088411;28;20426;-58
2022/04/13 03:41:10;;;;;;;10.30;4.37;;;;;;;-0.27;72.39;101627.81;2096652;28;20322;-59
2022/04/13 03:42:16;;;;;;;14.60;4.30;;;;;;;-0.29;72.42;101625.34;2088085;28;20299;-58
2022/04/13 03:43:20;;;;;;;14.80;4.87;;;;;;;-0.29;72.36;101628.00;2095086;28;20289;-59
2022/04/13 03:44:25;;;;;;;16.43;5.37;;;;;;;-0.30;72.77;101623.72;2104892;28;20298;-60
2022/04/13 03:45:29;;;;;;;16.13;4.77;;;;;;;-0.29;72.40;101629.84;2105021;28;20294;-60
2022/04/13 03:46:31;;;;;;;14.13;4.90;;;;;;;-0.28;72.87;101631.50;2088479;28;20354;-59
2022/04/13 03:47:34;;;;;;;18.17;4.30;;;;;;;-0.29;72.49;101630.66;2097203;28;20950;-60
2022/04/13 03:48:36;;;;;;;13.60;4.37;;;;;;;-0.28;72.36;101626.19;2110424;28;20282;-60
2022/04/13 03:49:38;;;;;;;19.60;5.20;;;;;;;-0.25;72.13;101631.06;2098490;28;20290;-60
2022/04/13 03:50:40;;;;;;;10.37;4.07;;;;;;;-0.24;71.90;101635.38;2097594;28;20313;-59
2022/04/13 03:51:48;;;;;;;14.23;4.57;;;;;;;-0.19;72.04;101637.41;2098300;28;20287;-60
2022/04/13 03:52:54;;;;;;;14.23;4.50;;;;;;;-0.16;71.64;101631.66;2098252;28;20291;-60
2022/04/13 03:53:58;;;;;;;14.10;4.40;;;;;;;-0.17;71.47;101641.50;2097658;28;20309;-60
2022/04/13 03:55:01;;;;;;;12.60;4.30;;;;;;;-0.20;71.34;101633.09;2098076;28;20746;-59
2022/04/13 03:56:04;;;;;;;16.90;4.47;;;;;;;-0.17;71.30;101633.50;2098075;28;20297;-60
2022/04/13 03:57:08;;;;;;;12.90;4.47;;;;;;;-0.15;71.15;101628.81;2089220;28;20294;-59
2022/04/13 03:58:13;;;;;;;13.57;4.37;;;;;;;-0.15;70.97;101635.97;2097747;28;20282;-60
2022/04/13 03:59:20;;;;;;;14.73;4.80;;;;;;;-0.12;70.99;101633.72;2097502;28;20291;-60
2022/04/13 04:00:25;;;;;;;10.63;4.53;;;;;;;-0.08;70.77;101631.47;2098484;28;20294;-60
2022/04/13 04:01:31;;;;;;;22.43;4.80;;;;;;;-0.06;70.70;101630.22;2098741;28;20784;-59
2022/04/13 04:02:38;;;;;;;13.73;4.70;;;;;;;-0.02;70.42;101627.16;2098124;28;20299;-59
2022/04/13 04:03:40;;;;;;;17.47;5.13;;;;;;;0.00;70.26;101631.22;2097294;28;20693;-59
2022/04/13 04:04:45;;;;;;;12.67;4.33;;;;;;;0.06;70.12;101630.38;2097427;28;20685;-59
2022/04/13 04:05:47;;;;;;;14.10;5.10;;;;;;;0.04;70.00;101634.31;2082204;28;20379;-59
2022/04/13 04:06:54;;;;;;;14.07;4.70;;;;;;;0.09;69.71;101637.13;2070402;28;20342;-60
2022/04/13 04:08:00;;;;;;;14.43;4.40;;;;;;;0.13;69.90;101627.69;2098027;28;20295;-59
2022/04/13 04:09:03;;;;;;;16.87;5.10;;;;;;;0.23;69.58;101637.94;2098276;28;20051;-59
2022/04/13 04:10:07;;;;;;;13.57;5.23;;;;;;;0.28;69.18;101635.44;2098244;28;20283;-59
2022/04/13 04:11:12;;;;;;;15.53;4.70;;;;;;;0.30;69.05;101634.22;2097603;28;20328;-59
2022/04/13 04:12:14;;;;;;;16.70;4.90;;;;;;;0.36;69.07;101628.03;2097625;28;20295;-59
2022/04/13 04:13:18;;;;;;;26.03;5.07;;;;;;;0.43;68.80;101632.53;2097202;28;20299;-59
2022/04/13 04:14:20;;;;;;;27.20;5.33;;;;;;;0.52;68.52;101628.59;2098015;28;20301;-59
2022/04/13 04:15:22;;;;;;;21.70;5.57;;;;;;;0.54;68.33;101639.84;2089689;28;20283;-59
2022/04/13 04:16:27;;;;;;;19.47;5.57;;;;;;;0.71;68.45;101633.00;2081783;28;20295;-59
2022/04/13 04:17:30;;;;;;;19.97;5.57;;;;;;;0.94;67.85;101634.31;2090457;28;20287;-59
2022/04/13 04:18:33;;;;;;;17.17;5.07;;;;;;;1.15;67.87;101633.97;2089502;28;21059;-59
2022/04/13 04:19:38;;;;;;;18.03;5.80;;;;;;;1.29;67.10;101630.16;2097013;28;20293;-59
2022/04/13 04:20:42;;;;;;;16.23;5.50;;;;;;;1.46;66.24;101637.66;2098702;28;20259;-59
2022/04/13 04:21:46;;;;;;;13.37;5.27;;;;;;;1.62;65.85;101639.75;2098869;28;20301;-59
2022/04/13 04:22:55;;;;;;;17.60;5.40;;;;;;;1.66;65.41;101632.94;2089015;28;20287;-59
2022/04/13 04:23:57;;;;;;;17.77;6.23;;;;;;;1.65;64.83;101636.66;2089735;28;20286;-59
2022/04/13 04:25:04;;;;;;;21.90;5.93;;;;;;;1.66;64.56;101638.28;2097851;28;20274;-59
2022/04/13 04:26:06;;;;;;;22.93;5.73;;;;;;;1.63;64.94;101644.06;2089431;28;20330;-59
2022/04/13 04:27:09;;;;;;;22.30;5.70;;;;;;;1.51;64.11;101632.47;2088410;28;20275;-60
2022/04/13 04:28:11;;;;;;;22.10;6.17;;;;;;;1.41;64.37;101645.47;2089959;28;20276;-60
2022/04/13 04:29:16;;;;;;;17.50;6.00;;;;;;;1.26;64.82;101643.13;2081167;28;20325;-58
2022/04/13 04:30:21;;;;;;;20.80;6.73;;;;;;;1.27;65.19;101640.25;2082126;28;20789;-59
2022/04/13 04:32:43;;;;;;;20.30;6.20;;;;;;;1.56;64.94;101648.66;2105829;28;20290;-59
2022/04/13 04:33:46;;;;;;;21.57;6.20;;;;;;;1.61;63.92;101648.78;2104211;28;20633;-59
2022/04/13 04:34:48;;;;;;;24.93;6.70;;;;;;;1.63;64.39;101646.72;2096349;28;20295;-59
2022/04/13 04:35:52;;;;;;;27.10;6.57;;;;;;;1.84;64.28;101642.84;2096397;28;20282;-59
2022/04/13 04:36:55;;;;;;;24.73;7.10;;;;;;;2.13;63.62;101653.88;2095253;28;20279;-58
2022/04/13 04:37:58;;;;;;;21.00;6.10;;;;;;;2.42;62.69;101653.13;2103723;28;20710;-58
2022/04/13 04:39:02;;;;;;;19.60;5.63;;;;;;;2.65;61.17;101651.63;2104191;28;20297;-58
2022/04/13 04:40:07;;;;;;;19.60;6.27;;;;;;;2.95;60.82;101651.63;2104850;28;20341;-60
2022/04/13 04:41:18;;;;;;;15.57;6.00;;;;;;;3.28;60.48;101655.66;2105682;28;20305;-59
2022/04/13 04:42:25;;;;;;;19.15;5.93;;;;;;;3.59;59.02;101658.03;2105471;28;20305;-58
2022/04/13 04:43:30;;;;;;;15.87;5.50;;;;;;;3.84;58.51;101659.69;2104301;28;20622;-58
2022/04/13 04:44:35;;;;;;;18.83;5.78;;;;;;;4.11;57.76;101655.50;2088520;28;20291;-58
2022/04/13 04:45:42;;;;;;;22.00;6.85;;;;;;;4.29;57.18;101654.53;2097186;28;20302;-59
2022/04/13 04:46:46;;;;;;;16.25;6.80;;;;;;;4.52;56.58;101650.19;2104278;28;20286;-58
2022/04/13 04:47:51;;;;;;;25.10;8.02;;;;;;;4.67;56.30;101653.19;2104808;28;20305;-58
2022/04/13 04:48:54;;;;;;;26.35;8.02;;;;;;;4.87;55.72;101651.94;2099214;28;20293;-59
2022/04/13 04:49:57;;;;;;;26.67;8.07;;;;;;;5.00;54.78;101655.13;2095830;28;20369;-58
2022/04/13 04:51:00;;;;;;;20.25;8.38;;;;;;;5.14;54.50;101658.34;2096681;28;20393;-60
2022/04/13 04:52:04;;;;;;;30.73;9.23;;;;;;;5.32;54.60;101654.59;2096808;28;20306;-58
2022/04/13 04:53:06;;;;;;;23.00;8.82;;;;;;;5.54;53.95;101659.25;2097673;28;20774;-58
2022/04/13 04:54:09;;;;;;;25.50;8.85;;;;;;;5.71;52.62;101660.06;2090491;28;20305;-59
2022/04/13 04:55:14;;;;;;;26.98;9.63;;;;;;;5.90;53.03;101666.78;2095725;28;20290;-58
2022/04/13 04:56:17;;;;;;;35.38;9.38;;;;;;;6.04;52.26;101672.63;2089349;28;20300;-57
2022/04/13 04:57:20;;;;;;;24.15;9.07;;;;;;;5.81;51.67;101665.59;2095813;28;20377;-58
2022/04/13 04:58:25;;;;;;;30.48;9.60;;;;;;;5.92;52.01;101667.34;2096152;28;20413;-58
2022/04/13 04:59:30;;;;;;;26.23;9.45;;;;;;;6.10;51.57;101660.06;2088983;28;20291;-59
2022/04/13 05:00:36;;;;;;;25.38;9.30;;;;;;;6.34;51.67;101653.44;2090833;28;20291;-59
2022/04/13 05:01:38;;;;;;;26.35;10.13;;;;;;;6.58;50.28;101655.88;2081409;28;20300;-59